Terminal Aerodrome Forecast
Issued by NWS El Paso, TX

Home | Current Version | Previous Version | Text Only | Print | Product List | Glossary On
Versions: 1 2 3 4 5 6 7 8 9 10 11 12 13
407
FTUS44 KEPZ 252356
TAFELP
TAF
KELP 252356Z 2600/2624 15010KT P6SM SCT100 SCT250
     FM262100 12008KT P6SM VCTS SCT090CB SCT150=

USA.gov is the U.S. government's official web portal to all federal, state and local government web resources and services.